sensor_id;sensor_type;location;lat;lon;timestamp;pressure;altitude;pressure_sealevel;temperature;humidity
59043;BME280;44826;51.596;5.624;2023-04-08T00:01:27;102136.63;;;7.52;95.84
59043;BME280;44826;51.596;5.624;2023-04-08T00:03:53;102141.78;;;7.50;95.84
59043;BME280;44826;51.596;5.624;2023-04-08T00:06:18;102141.78;;;7.52;96.00
59043;BME280;44826;51.596;5.624;2023-04-08T00:08:43;102141.78;;;7.52;96.05
59043;BME280;44826;51.596;5.624;2023-04-08T00:11:09;102140.09;;;7.54;95.99
59043;BME280;44826;51.596;5.624;2023-04-08T00:13:34;102144.41;;;7.53;96.31
59043;BME280;44826;51.596;5.624;2023-04-08T00:16:00;102134.06;;;7.53;96.39
59043;BME280;44826;51.596;5.624;2023-04-08T00:18:26;102138.38;;;7.56;96.37
59043;BME280;44826;51.596;5.624;2023-04-08T00:20:51;102140.97;;;7.56;96.34
59043;BME280;44826;51.596;5.624;2023-04-08T00:23:17;102133.19;;;7.56;96.69
59043;BME280;44826;51.596;5.624;2023-04-08T00:25:43;102140.13;;;7.57;96.57
59043;BME280;44826;51.596;5.624;2023-04-08T00:28:09;102140.97;;;7.56;96.91
59043;BME280;44826;51.596;5.624;2023-04-08T00:30:34;102138.34;;;7.53;96.98
59043;BME280;44826;51.596;5.624;2023-04-08T00:33:00;102145.25;;;7.54;96.98
59043;BME280;44826;51.596;5.624;2023-04-08T00:35:26;102140.94;;;7.53;97.16
59043;BME280;44826;51.596;5.624;2023-04-08T00:37:51;102143.53;;;7.53;97.33
59043;BME280;44826;51.596;5.624;2023-04-08T00:40:16;102139.19;;;7.52;97.27
59043;BME280;44826;51.596;5.624;2023-04-08T00:42:41;102146.13;;;7.51;97.28
59043;BME280;44826;51.596;5.624;2023-04-08T00:45:07;102147.84;;;7.51;97.12
59043;BME280;44826;51.596;5.624;2023-04-08T00:47:34;102140.09;;;7.51;97.58
59043;BME280;44826;51.596;5.624;2023-04-08T00:50:00;102149.56;;;7.50;97.40
59043;BME280;44826;51.596;5.624;2023-04-08T00:52:25;102142.69;;;7.51;97.45
59043;BME280;44826;51.596;5.624;2023-04-08T00:54:51;102143.53;;;7.50;97.53
59043;BME280;44826;51.596;5.624;2023-04-08T00:57:16;102143.53;;;7.50;97.35
59043;BME280;44826;51.596;5.624;2023-04-08T00:59:41;102154.75;;;7.50;97.70
59043;BME280;44826;51.596;5.624;2023-04-08T01:02:32;102151.28;;;7.50;98.02
59043;BME280;44826;51.596;5.624;2023-04-08T01:05:06;102150.44;;;7.51;97.77
59043;BME280;44826;51.596;5.624;2023-04-08T01:07:36;102149.56;;;7.52;97.19
59043;BME280;44826;51.596;5.624;2023-04-08T01:10:12;102159.06;;;7.53;97.47
59043;BME280;44826;51.596;5.624;2023-04-08T01:12:56;102150.44;;;7.52;97.67
59043;BME280;44826;51.596;5.624;2023-04-08T01:15:23;102148.72;;;7.53;97.24
59043;BME280;44826;51.596;5.624;2023-04-08T01:17:52;102154.78;;;7.53;97.61
59043;BME280;44826;51.596;5.624;2023-04-08T01:20:18;102146.97;;;7.52;97.59
59043;BME280;44826;51.596;5.624;2023-04-08T01:25:32;102152.19;;;7.55;98.00
59043;BME280;44826;51.596;5.624;2023-04-08T01:28:13;102150.47;;;7.55;98.06
59043;BME280;44826;51.596;5.624;2023-04-08T01:30:40;102153.06;;;7.57;97.78
59043;BME280;44826;51.596;5.624;2023-04-08T01:33:09;102153.91;;;7.56;98.21
59043;BME280;44826;51.596;5.624;2023-04-08T01:35:35;102162.56;;;7.56;98.07
59043;BME280;44826;51.596;5.624;2023-04-08T01:38:02;102161.72;;;7.57;98.04
59043;BME280;44826;51.596;5.624;2023-04-08T01:40:27;102159.13;;;7.57;98.11
59043;BME280;44826;51.596;5.624;2023-04-08T01:42:55;102160.84;;;7.57;98.20
59043;BME280;44826;51.596;5.624;2023-04-08T01:45:22;102167.78;;;7.59;98.45
59043;BME280;44826;51.596;5.624;2023-04-08T01:47:48;102169.47;;;7.59;98.12
59043;BME280;44826;51.596;5.624;2023-04-08T01:50:14;102168.63;;;7.60;98.11
59043;BME280;44826;51.596;5.624;2023-04-08T01:52:42;102166.03;;;7.60;98.36
59043;BME280;44826;51.596;5.624;2023-04-08T01:55:08;102171.22;;;7.62;98.09
59043;BME280;44826;51.596;5.624;2023-04-08T01:57:36;102170.38;;;7.61;98.32
59043;BME280;44826;51.596;5.624;2023-04-08T02:00:05;102167.78;;;7.63;98.22
59043;BME280;44826;51.596;5.624;2023-04-08T02:02:32;102173.84;;;7.63;98.00
59043;BME280;44826;51.596;5.624;2023-04-08T02:04:59;102169.50;;;7.64;98.06
59043;BME280;44826;51.596;5.624;2023-04-08T02:07:24;102178.13;;;7.63;98.02
59043;BME280;44826;51.596;5.624;2023-04-08T02:09:49;102174.69;;;7.62;97.82
59043;BME280;44826;51.596;5.624;2023-04-08T02:12:15;102173.84;;;7.63;97.83
59043;BME280;44826;51.596;5.624;2023-04-08T02:14:41;102182.47;;;7.64;97.80
59043;BME280;44826;51.596;5.624;2023-04-08T02:17:13;102174.69;;;7.62;97.68
59043;BME280;44826;51.596;5.624;2023-04-08T02:19:47;102171.25;;;7.63;97.93
59043;BME280;44826;51.596;5.624;2023-04-08T02:22:19;102179.03;;;7.65;97.71
59043;BME280;44826;51.596;5.624;2023-04-08T02:24:48;102176.44;;;7.65;97.45
59043;BME280;44826;51.596;5.624;2023-04-08T02:27:16;102176.44;;;7.63;97.32
59043;BME280;44826;51.596;5.624;2023-04-08T02:29:42;102177.28;;;7.62;97.05
59043;BME280;44826;51.596;5.624;2023-04-08T02:32:10;102175.53;;;7.58;97.44
59043;BME280;44826;51.596;5.624;2023-04-08T02:34:38;102179.81;;;7.56;97.46
59043;BME280;44826;51.596;5.624;2023-04-08T02:37:04;102180.66;;;7.53;97.32
59043;BME280;44826;51.596;5.624;2023-04-08T02:39:31;102175.47;;;7.52;97.68
59043;BME280;44826;51.596;5.624;2023-04-08T02:41:57;102169.44;;;7.50;97.89
59043;BME280;44826;51.596;5.624;2023-04-08T02:44:22;102182.34;;;7.47;97.67
59043;BME280;44826;51.596;5.624;2023-04-08T02:46:47;102178.81;;;7.43;97.91
59043;BME280;44826;51.596;5.624;2023-04-08T02:49:13;102176.25;;;7.41;97.64
59043;BME280;44826;51.596;5.624;2023-04-08T02:51:38;102177.09;;;7.39;97.59
59043;BME280;44826;51.596;5.624;2023-04-08T02:54:04;102177.91;;;7.36;97.22
59043;BME280;44826;51.596;5.624;2023-04-08T02:56:29;102184.78;;;7.33;96.95
59043;BME280;44826;51.596;5.624;2023-04-08T02:58:54;102188.22;;;7.30;97.37
59043;BME280;44826;51.596;5.624;2023-04-08T03:01:20;102189.09;;;7.29;97.69
59043;BME280;44826;51.596;5.624;2023-04-08T03:03:45;102186.47;;;7.26;97.94
59043;BME280;44826;51.596;5.624;2023-04-08T03:06:10;102180.38;;;7.22;98.00
59043;BME280;44826;51.596;5.624;2023-04-08T03:08:36;102182.09;;;7.22;98.00
59043;BME280;44826;51.596;5.624;2023-04-08T03:11:01;102191.56;;;7.17;97.58
59043;BME280;44826;51.596;5.624;2023-04-08T03:13:26;102187.19;;;7.14;97.35
59043;BME280;44826;51.596;5.624;2023-04-08T03:15:53;102186.31;;;7.10;97.09
59043;BME280;44826;51.596;5.624;2023-04-08T03:18:19;102188.84;;;7.07;96.98
59043;BME280;44826;51.596;5.624;2023-04-08T03:20:44;102181.94;;;7.06;97.15
59043;BME280;44826;51.596;5.624;2023-04-08T03:23:09;102189.69;;;7.06;97.29
59043;BME280;44826;51.596;5.624;2023-04-08T03:25:35;102186.22;;;7.04;96.82
59043;BME280;44826;51.596;5.624;2023-04-08T03:28:00;102181.91;;;7.02;96.97
59043;BME280;44826;51.596;5.624;2023-04-08T03:30:25;102181.03;;;7.03;97.23
59043;BME280;44826;51.596;5.624;2023-04-08T03:32:51;102182.78;;;7.05;97.35
59043;BME280;44826;51.596;5.624;2023-04-08T03:35:16;102178.47;;;7.04;97.42
59043;BME280;44826;51.596;5.624;2023-04-08T03:37:41;102187.94;;;7.02;96.98
59043;BME280;44826;51.596;5.624;2023-04-08T03:40:07;102186.19;;;6.98;96.95
59043;BME280;44826;51.596;5.624;2023-04-08T03:42:32;102194.75;;;6.94;96.95
59043;BME280;44826;51.596;5.624;2023-04-08T03:44:59;102191.28;;;6.92;96.78
59043;BME280;44826;51.596;5.624;2023-04-08T03:47:24;102188.69;;;6.90;97.18
59043;BME280;44826;51.596;5.624;2023-04-08T03:49:52;102199.03;;;6.92;97.29
59043;BME280;44826;51.596;5.624;2023-04-08T03:52:17;102194.72;;;6.91;96.74
59043;BME280;44826;51.596;5.624;2023-04-08T03:54:42;102205.91;;;6.90;96.70
59043;BME280;44826;51.596;5.624;2023-04-08T03:57:08;102203.28;;;6.87;96.74
59043;BME280;44826;51.596;5.624;2023-04-08T03:59:33;102202.44;;;6.86;96.79
59043;BME280;44826;51.596;5.624;2023-04-08T04:02:00;102202.38;;;6.84;96.77
59043;BME280;44826;51.596;5.624;2023-04-08T04:04:25;102198.94;;;6.84;96.84
59043;BME280;44826;51.596;5.624;2023-04-08T04:06:50;102201.53;;;6.82;96.71
59043;BME280;44826;51.596;5.624;2023-04-08T04:09:16;102207.56;;;6.83;97.37
59043;BME280;44826;51.596;5.624;2023-04-08T04:11:41;102206.72;;;6.82;97.21
59043;BME280;44826;51.596;5.624;2023-04-08T04:14:07;102206.72;;;6.84;97.39
59043;BME280;44826;51.596;5.624;2023-04-08T04:16:32;102208.44;;;6.85;97.56
59043;BME280;44826;51.596;5.624;2023-04-08T04:18:57;102213.63;;;6.87;97.28
59043;BME280;44826;51.596;5.624;2023-04-08T04:21:22;102211.88;;;6.86;97.51
59043;BME280;44826;51.596;5.624;2023-04-08T04:23:48;102217.94;;;6.88;97.33
59043;BME280;44826;51.596;5.624;2023-04-08T04:26:13;102223.13;;;6.88;97.47
59043;BME280;44826;51.596;5.624;2023-04-08T04:28:39;102220.53;;;6.88;97.34
59043;BME280;44826;51.596;5.624;2023-04-08T04:31:04;102230.03;;;6.89;97.85
59043;BME280;44826;51.596;5.624;2023-04-08T04:33:30;102228.34;;;6.89;97.86
59043;BME280;44826;51.596;5.624;2023-04-08T04:35:55;102237.84;;;6.90;98.01
59043;BME280;44826;51.596;5.624;2023-04-08T04:38:21;102237.00;;;6.91;98.43
59043;BME280;44826;51.596;5.624;2023-04-08T04:40:46;102238.69;;;6.91;98.18
59043;BME280;44826;51.596;5.624;2023-04-08T04:43:11;102243.88;;;6.89;98.24
59043;BME280;44826;51.596;5.624;2023-04-08T04:45:37;102243.88;;;6.89;98.24
59043;BME280;44826;51.596;5.624;2023-04-08T04:48:02;102241.25;;;6.88;98.71
59043;BME280;44826;51.596;5.624;2023-04-08T04:50:27;102248.16;;;6.89;98.85
59043;BME280;44826;51.596;5.624;2023-04-08T04:52:53;102249.88;;;6.90;98.83
59043;BME280;44826;51.596;5.624;2023-04-08T04:55:18;102255.97;;;6.92;98.93
59043;BME280;44826;51.596;5.624;2023-04-08T04:57:43;102251.66;;;6.94;98.61
59043;BME280;44826;51.596;5.624;2023-04-08T05:00:09;102252.56;;;6.96;98.58
59043;BME280;44826;51.596;5.624;2023-04-08T05:02:35;102250.81;;;6.96;98.47
59043;BME280;44826;51.596;5.624;2023-04-08T05:05:00;102257.78;;;6.99;98.60
59043;BME280;44826;51.596;5.624;2023-04-08T05:07:25;102260.38;;;7.01;98.44
59043;BME280;44826;51.596;5.624;2023-04-08T05:09:51;102260.38;;;7.02;98.48
59043;BME280;44826;51.596;5.624;2023-04-08T05:12:16;102264.69;;;7.03;98.32
59043;BME280;44826;51.596;5.624;2023-04-08T05:14:41;102269.03;;;7.04;98.35
59043;BME280;44826;51.596;5.624;2023-04-08T05:17:07;102272.50;;;7.05;98.82
59043;BME280;44826;51.596;5.624;2023-04-08T05:19:32;102270.81;;;7.07;98.30
59043;BME280;44826;51.596;5.624;2023-04-08T05:21:58;102273.41;;;7.07;97.85
59043;BME280;44826;51.596;5.624;2023-04-08T05:24:23;102274.25;;;7.07;97.81
59043;BME280;44826;51.596;5.624;2023-04-08T05:26:48;102279.44;;;7.07;97.67
59043;BME280;44826;51.596;5.624;2023-04-08T05:29:17;102275.09;;;7.06;97.46
59043;BME280;44826;51.596;5.624;2023-04-08T05:31:43;102274.25;;;7.07;97.98
59043;BME280;44826;51.596;5.624;2023-04-08T05:34:08;102276.88;;;7.10;97.71
59043;BME280;44826;51.596;5.624;2023-04-08T05:36:34;102279.50;;;7.13;97.93
59043;BME280;44826;51.596;5.624;2023-04-08T05:38:59;102273.50;;;7.18;97.69
59043;BME280;44826;51.596;5.624;2023-04-08T05:41:25;102285.63;;;7.20;97.22
59043;BME280;44826;51.596;5.624;2023-04-08T05:43:50;102284.75;;;7.20;97.26
59043;BME280;44826;51.596;5.624;2023-04-08T05:46:15;102289.97;;;7.23;97.31
59043;BME280;44826;51.596;5.624;2023-04-08T05:48:41;102292.59;;;7.26;97.00
59043;BME280;44826;51.596;5.624;2023-04-08T05:51:12;102285.72;;;7.28;96.90
59043;BME280;44826;51.596;5.624;2023-04-08T05:53:37;102291.78;;;7.30;96.73
59043;BME280;44826;51.596;5.624;2023-04-08T05:56:03;102290.03;;;7.29;95.99
59043;BME280;44826;51.596;5.624;2023-04-08T05:58:28;102297.81;;;7.29;96.19
59043;BME280;44826;51.596;5.624;2023-04-08T06:00:53;102296.06;;;7.28;96.04
59043;BME280;44826;51.596;5.624;2023-04-08T06:03:19;102302.13;;;7.30;96.35
59043;BME280;44826;51.596;5.624;2023-04-08T06:05:45;102308.19;;;7.32;96.03
59043;BME280;44826;51.596;5.624;2023-04-08T06:08:10;102307.31;;;7.30;95.78
59043;BME280;44826;51.596;5.624;2023-04-08T06:10:35;102309.00;;;7.29;95.88
59043;BME280;44826;51.596;5.624;2023-04-08T06:13:00;102315.06;;;7.30;95.84
59043;BME280;44826;51.596;5.624;2023-04-08T06:15:26;102305.63;;;7.32;95.84
59043;BME280;44826;51.596;5.624;2023-04-08T06:17:52;102303.91;;;7.34;95.91
59043;BME280;44826;51.596;5.624;2023-04-08T06:20:17;102315.13;;;7.36;95.81
59043;BME280;44826;51.596;5.624;2023-04-08T06:22:42;102319.47;;;7.37;95.97
59043;BME280;44826;51.596;5.624;2023-04-08T06:25:08;102317.75;;;7.39;95.97
59043;BME280;44826;51.596;5.624;2023-04-08T06:27:33;102316.91;;;7.40;95.54
59043;BME280;44826;51.596;5.624;2023-04-08T06:29:58;102314.34;;;7.42;95.64
59043;BME280;44826;51.596;5.624;2023-04-08T06:32:23;102315.22;;;7.42;95.53
59043;BME280;44826;51.596;5.624;2023-04-08T06:34:49;102320.38;;;7.44;95.49
59043;BME280;44826;51.596;5.624;2023-04-08T06:37:14;102326.47;;;7.44;95.52
59043;BME280;44826;51.596;5.624;2023-04-08T06:39:40;102330.81;;;7.49;95.83
59043;BME280;44826;51.596;5.624;2023-04-08T06:42:05;102326.53;;;7.51;95.53
59043;BME280;44826;51.596;5.624;2023-04-08T06:44:31;102326.53;;;7.54;95.64
59043;BME280;44826;51.596;5.624;2023-04-08T06:46:56;102336.94;;;7.57;95.40
59043;BME280;44826;51.596;5.624;2023-04-08T06:49:21;102338.69;;;7.58;94.96
59043;BME280;44826;51.596;5.624;2023-04-08T06:51:47;102341.28;;;7.58;94.74
59043;BME280;44826;51.596;5.624;2023-04-08T06:54:12;102340.41;;;7.59;94.88
59043;BME280;44826;51.596;5.624;2023-04-08T06:56:38;102349.09;;;7.61;94.30
59043;BME280;44826;51.596;5.624;2023-04-08T06:59:03;102348.19;;;7.59;94.08
59043;BME280;44826;51.596;5.624;2023-04-08T07:01:29;102360.28;;;7.62;94.21
59043;BME280;44826;51.596;5.624;2023-04-08T07:03:54;102356.03;;;7.65;94.36
59043;BME280;44826;51.596;5.624;2023-04-08T07:06:20;102361.25;;;7.68;94.48
59043;BME280;44826;51.596;5.624;2023-04-08T07:08:46;102364.72;;;7.70;94.75
59043;BME280;44826;51.596;5.624;2023-04-08T07:11:11;102370.78;;;7.72;94.51
59043;BME280;44826;51.596;5.624;2023-04-08T07:13:36;102363.00;;;7.72;94.49
59043;BME280;44826;51.596;5.624;2023-04-08T07:16:01;102376.84;;;7.74;94.37
59043;BME280;44826;51.596;5.624;2023-04-08T07:18:27;102374.28;;;7.76;94.41
59043;BME280;44826;51.596;5.624;2023-04-08T07:26:06;102380.34;;;7.77;94.05
59043;BME280;44826;51.596;5.624;2023-04-08T07:28:32;102382.91;;;7.77;93.74
59043;BME280;44826;51.596;5.624;2023-04-08T07:31:08;102389.00;;;7.79;93.71
59043;BME280;44826;51.596;5.624;2023-04-08T07:33:33;102389.88;;;7.81;93.64
59043;BME280;44826;51.596;5.624;2023-04-08T07:35:59;102394.22;;;7.82;93.54
59043;BME280;44826;51.596;5.624;2023-04-08T07:38:24;102394.19;;;7.80;93.93
59043;BME280;44826;51.596;5.624;2023-04-08T07:40:49;102394.22;;;7.82;94.44
59043;BME280;44826;51.596;5.624;2023-04-08T07:43:15;102402.00;;;7.83;94.49
59043;BME280;44826;51.596;5.624;2023-04-08T07:45:40;102400.28;;;7.85;94.31
59043;BME280;44826;51.596;5.624;2023-04-08T07:48:06;102399.44;;;7.86;94.07
59043;BME280;44826;51.596;5.624;2023-04-08T07:50:31;102405.47;;;7.87;93.93
59043;BME280;44826;51.596;5.624;2023-04-08T07:52:56;102403.78;;;7.89;94.14
59043;BME280;44826;51.596;5.624;2023-04-08T07:55:21;102406.44;;;7.94;93.86
59043;BME280;44826;51.596;5.624;2023-04-08T07:57:47;102410.78;;;7.96;94.01
59043;BME280;44826;51.596;5.624;2023-04-08T08:00:12;102410.81;;;8.01;93.43
59043;BME280;44826;51.596;5.624;2023-04-08T08:02:44;102412.56;;;8.03;92.97
59043;BME280;44826;51.596;5.624;2023-04-08T08:05:10;102409.97;;;8.00;93.05
59043;BME280;44826;51.596;5.624;2023-04-08T08:07:35;102417.75;;;8.02;92.93
59043;BME280;44826;51.596;5.624;2023-04-08T08:10:00;102415.16;;;8.00;92.88
59043;BME280;44826;51.596;5.624;2023-04-08T08:12:25;102420.31;;;8.00;92.74
59043;BME280;44826;51.596;5.624;2023-04-08T08:14:51;102412.56;;;8.00;92.74
59043;BME280;44826;51.596;5.624;2023-04-08T08:17:18;102418.59;;;8.01;92.23
59043;BME280;44826;51.596;5.624;2023-04-08T08:19:44;102429.84;;;8.03;92.68
59043;BME280;44826;51.596;5.624;2023-04-08T08:22:10;102424.63;;;8.00;92.17
59043;BME280;44826;51.596;5.624;2023-04-08T08:24:35;102423.72;;;7.96;92.29
59043;BME280;44826;51.596;5.624;2023-04-08T08:27:02;102425.47;;;7.97;92.57
59043;BME280;44826;51.596;5.624;2023-04-08T08:29:29;102433.28;;;8.02;92.37
59043;BME280;44826;51.596;5.624;2023-04-08T08:31:54;102435.88;;;8.03;91.73
59043;BME280;44826;51.596;5.624;2023-04-08T08:34:19;102438.50;;;8.07;91.53
59043;BME280;44826;51.596;5.624;2023-04-08T08:36:45;102434.22;;;8.09;92.03
59043;BME280;44826;51.596;5.624;2023-04-08T08:39:10;102438.59;;;8.13;91.96
59043;BME280;44826;51.596;5.624;2023-04-08T08:41:35;102444.66;;;8.15;92.28
59043;BME280;44826;51.596;5.624;2023-04-08T08:44:04;102449.00;;;8.16;91.84
59043;BME280;44826;51.596;5.624;2023-04-08T08:46:29;102446.47;;;8.24;91.78
59043;BME280;44826;51.596;5.624;2023-04-08T08:48:55;102456.88;;;8.27;91.05
59043;BME280;44826;51.596;5.624;2023-04-08T08:51:21;102460.38;;;8.30;90.79
59043;BME280;44826;51.596;5.624;2023-04-08T08:53:46;102456.94;;;8.33;90.84
59043;BME280;44826;51.596;5.624;2023-04-08T08:56:12;102465.63;;;8.37;90.76
59043;BME280;44826;51.596;5.624;2023-04-08T08:58:37;102465.66;;;8.43;90.76
59043;BME280;44826;51.596;5.624;2023-04-08T09:01:35;102454.53;;;8.50;90.52
59043;BME280;44826;51.596;5.624;2023-04-08T09:04:12;102460.59;;;8.50;89.86
59043;BME280;44826;51.596;5.624;2023-04-08T09:06:39;102458.88;;;8.54;89.65
59043;BME280;44826;51.596;5.624;2023-04-08T09:09:05;102458.09;;;8.63;90.61
59043;BME280;44826;51.596;5.624;2023-04-08T09:11:34;102467.69;;;8.69;89.42
59043;BME280;44826;51.596;5.624;2023-04-08T09:13:59;102461.63;;;8.71;89.60
59043;BME280;44826;51.596;5.624;2023-04-08T09:16:25;102466.00;;;8.77;89.09
59043;BME280;44826;51.596;5.624;2023-04-08T09:18:50;102462.53;;;8.78;88.39
59043;BME280;44826;51.596;5.624;2023-04-08T09:21:16;102468.63;;;8.78;88.93
59043;BME280;44826;51.596;5.624;2023-04-08T09:23:47;102472.97;;;8.79;88.13
59043;BME280;44826;51.596;5.624;2023-04-08T09:26:30;102473.81;;;8.80;87.99
59043;BME280;44826;51.596;5.624;2023-04-08T09:29:06;102469.47;;;8.80;87.61
59043;BME280;44826;51.596;5.624;2023-04-08T09:31:34;102471.25;;;8.85;88.41
59043;BME280;44826;51.596;5.624;2023-04-08T09:34:24;102473.94;;;8.97;87.56
59043;BME280;44826;51.596;5.624;2023-04-08T09:36:50;102479.19;;;9.08;87.38
59043;BME280;44826;51.596;5.624;2023-04-08T09:39:16;102481.88;;;9.17;86.24
59043;BME280;44826;51.596;5.624;2023-04-08T09:41:42;102482.75;;;9.22;85.78
59043;BME280;44826;51.596;5.624;2023-04-08T09:44:09;102488.84;;;9.26;86.15
59043;BME280;44826;51.596;5.624;2023-04-08T09:46:39;102495.81;;;9.32;86.35
59043;BME280;44826;51.596;5.624;2023-04-08T09:49:11;102499.28;;;9.34;85.24
59043;BME280;44826;51.596;5.624;2023-04-08T09:52:07;102496.69;;;9.35;85.79
59043;BME280;44826;51.596;5.624;2023-04-08T09:57:39;102498.41;;;9.33;86.02
59043;BME280;44826;51.596;5.624;2023-04-08T10:00:15;102504.50;;;9.37;85.07
59043;BME280;44826;51.596;5.624;2023-04-08T10:05:37;102498.47;;;9.38;84.95
59043;BME280;44826;51.596;5.624;2023-04-08T10:08:05;102494.16;;;9.45;85.15
59043;BME280;44826;51.596;5.624;2023-04-08T10:10:33;102503.72;;;9.55;84.08
59043;BME280;44826;51.596;5.624;2023-04-08T10:12:58;102498.59;;;9.61;83.19
59043;BME280;44826;51.596;5.624;2023-04-08T10:15:26;102496.84;;;9.66;82.83
59043;BME280;44826;51.596;5.624;2023-04-08T10:23:04;102483.09;;;9.94;81.74
59043;BME280;44826;51.596;5.624;2023-04-08T10:25:37;102478.75;;;9.93;82.44
59043;BME280;44826;51.596;5.624;2023-04-08T10:30:52;102476.16;;;9.86;81.72
59043;BME280;44826;51.596;5.624;2023-04-08T10:35:59;102471.84;;;9.98;80.79
59043;BME280;44826;51.596;5.624;2023-04-08T10:38:27;102470.97;;;9.96;80.80
59043;BME280;44826;51.596;5.624;2023-04-08T10:40:53;102473.56;;;9.90;80.37
59043;BME280;44826;51.596;5.624;2023-04-08T10:43:18;102473.53;;;9.80;79.79
59043;BME280;44826;51.596;5.624;2023-04-08T10:45:43;102470.03;;;9.72;79.78
59043;BME280;44826;51.596;5.624;2023-04-08T10:48:30;102468.31;;;9.71;81.58
59043;BME280;44826;51.596;5.624;2023-04-08T10:50:57;102457.91;;;9.71;80.57
59043;BME280;44826;51.596;5.624;2023-04-08T10:53:49;102455.34;;;9.82;82.09
59043;BME280;44826;51.596;5.624;2023-04-08T10:56:15;102467.47;;;9.86;80.34
59043;BME280;44826;51.596;5.624;2023-04-08T10:58:53;102463.13;;;9.80;79.82
59043;BME280;44826;51.596;5.624;2023-04-08T11:01:21;102470.06;;;9.78;80.04
59043;BME280;44826;51.596;5.624;2023-04-08T11:03:48;102466.59;;;9.82;79.85
59043;BME280;44826;51.596;5.624;2023-04-08T11:06:13;102468.34;;;9.88;80.17
59043;BME280;44826;51.596;5.624;2023-04-08T11:08:39;102471.84;;;9.93;79.69
59043;BME280;44826;51.596;5.624;2023-04-08T11:11:06;102469.25;;;9.96;80.11
59043;BME280;44826;51.596;5.624;2023-04-08T11:13:34;102471.88;;;10.04;80.00
59043;BME280;44826;51.596;5.624;2023-04-08T11:16:00;102470.19;;;10.14;79.10
59043;BME280;44826;51.596;5.624;2023-04-08T11:18:27;102474.53;;;10.23;80.38
59043;BME280;44826;51.596;5.624;2023-04-08T11:20:53;102473.66;;;10.24;78.04
59043;BME280;44826;51.596;5.624;2023-04-08T11:23:19;102472.78;;;10.26;78.54
59043;BME280;44826;51.596;5.624;2023-04-08T11:25:45;102466.72;;;10.33;78.25
59043;BME280;44826;51.596;5.624;2023-04-08T11:28:12;102466.78;;;10.41;78.11
59043;BME280;44826;51.596;5.624;2023-04-08T11:30:39;102462.44;;;10.50;77.60
59043;BME280;44826;51.596;5.624;2023-04-08T11:33:05;102460.72;;;10.61;78.61
59043;BME280;44826;51.596;5.624;2023-04-08T11:35:32;102463.31;;;10.67;77.79
59043;BME280;44826;51.596;5.624;2023-04-08T11:37:57;102460.72;;;10.73;76.96
59043;BME280;44826;51.596;5.624;2023-04-08T11:40:23;102453.78;;;10.82;77.37
59043;BME280;44826;51.596;5.624;2023-04-08T11:42:49;102458.13;;;10.92;77.52
59043;BME280;44826;51.596;5.624;2023-04-08T11:45:17;102454.63;;;11.02;76.52
59043;BME280;44826;51.596;5.624;2023-04-08T11:47:43;102449.38;;;11.15;76.49
59043;BME280;44826;51.596;5.624;2023-04-08T11:50:10;102453.69;;;11.31;76.76
59043;BME280;44826;51.596;5.624;2023-04-08T11:52:41;102444.97;;;11.46;77.24
59043;BME280;44826;51.596;5.624;2023-04-08T11:55:10;102448.41;;;11.51;73.79
59043;BME280;44826;51.596;5.624;2023-04-08T11:57:37;102448.38;;;11.58;72.90
59043;BME280;44826;51.596;5.624;2023-04-08T12:00:04;102453.53;;;11.75;74.07
59043;BME280;44826;51.596;5.624;2023-04-08T12:02:30;102449.13;;;11.89;73.93
59043;BME280;44826;51.596;5.624;2023-04-08T12:04:55;102451.63;;;12.12;74.05
59043;BME280;44826;51.596;5.624;2023-04-08T12:07:20;102459.31;;;12.33;73.05
59043;BME280;44826;51.596;5.624;2023-04-08T12:09:46;102448.78;;;12.43;67.53
59043;BME280;44826;51.596;5.624;2023-04-08T12:12:11;102446.13;;;12.51;67.56
59043;BME280;44826;51.596;5.624;2023-04-08T12:14:36;102444.25;;;12.66;70.83
59043;BME280;44826;51.596;5.624;2023-04-08T12:17:02;102451.13;;;12.79;69.44
59043;BME280;44826;51.596;5.624;2023-04-08T12:19:27;102439.63;;;12.96;70.32
59043;BME280;44826;51.596;5.624;2023-04-08T12:21:52;102440.34;;;13.13;69.64
59043;BME280;44826;51.596;5.624;2023-04-08T12:24:18;102449.66;;;13.36;71.35
59043;BME280;44826;51.596;5.624;2023-04-08T12:26:43;102441.78;;;13.42;68.77
59043;BME280;44826;51.596;5.624;2023-04-08T12:29:08;102440.91;;;13.40;67.56
59043;BME280;44826;51.596;5.624;2023-04-08T12:31:35;102439.91;;;13.50;69.15
59043;BME280;44826;51.596;5.624;2023-04-08T12:34:01;102438.94;;;13.61;66.17
59043;BME280;44826;51.596;5.624;2023-04-08T12:36:26;102443.28;;;13.62;65.43
59043;BME280;44826;51.596;5.624;2023-04-08T12:38:51;102436.38;;;13.55;65.28
59043;BME280;44826;51.596;5.624;2023-04-08T12:41:17;102440.75;;;13.53;64.78
59043;BME280;44826;51.596;5.624;2023-04-08T12:43:42;102432.03;;;13.54;66.56
59043;BME280;44826;51.596;5.624;2023-04-08T12:46:07;102435.53;;;13.53;65.15
59043;BME280;44826;51.596;5.624;2023-04-08T12:48:33;102426.81;;;13.54;66.68
59043;BME280;44826;51.596;5.624;2023-04-08T12:50:58;102433.78;;;13.55;66.20
59043;BME280;44826;51.596;5.624;2023-04-08T12:53:23;102425.94;;;13.56;65.63
59043;BME280;44826;51.596;5.624;2023-04-08T12:55:48;102429.34;;;13.60;65.63
59043;BME280;44826;51.596;5.624;2023-04-08T12:58:15;102424.94;;;13.65;66.17
59043;BME280;44826;51.596;5.624;2023-04-08T13:00:41;102422.22;;;13.71;63.37
59043;BME280;44826;51.596;5.624;2023-04-08T13:03:10;102420.34;;;13.83;64.58
59043;BME280;44826;51.596;5.624;2023-04-08T13:05:35;102424.63;;;13.87;58.89
59043;BME280;44826;51.596;5.624;2023-04-08T13:08:01;102417.69;;;13.84;56.60
59043;BME280;44826;51.596;5.624;2023-04-08T13:10:26;102419.44;;;13.84;56.38
59043;BME280;44826;51.596;5.624;2023-04-08T13:12:51;102415.19;;;13.76;54.53
59043;BME280;44826;51.596;5.624;2023-04-08T13:15:17;102417.09;;;13.65;53.64
59043;BME280;44826;51.596;5.624;2023-04-08T13:17:42;102419.00;;;13.52;53.04
59043;BME280;44826;51.596;5.624;2023-04-08T13:20:08;102418.25;;;13.39;50.56